Time;durP1;ratioP1;P1;durP2;ratioP2;P2;SDS_P1;SDS_P2;PMS_P1;PMS_P2;Temp;Humidity;BMP_temperature;BMP_pressure;BME280_temperature;BME280_humidity;BME280_pressure;Samples;Min_cycle;Max_cycle;Signal;HPM_P1;HPM_P2
2021/10/31 00:02:11;;;;;;;6.43;3.67;;;;;;;;;;5073921;28;20020;-66
2021/10/31 00:04:56;;;;;;;7.95;4.22;;;;;;;;;;5059581;28;20368;-69
2021/10/31 00:07:42;;;;;;;6.25;4.03;;;;;;;;;;5078710;28;20261;-66
2021/10/31 00:10:27;;;;;;;9.02;4.30;;;;;;;;;;5044786;28;20029;-75
2021/10/31 00:13:13;;;;;;;5.72;3.35;;;;;;;;;;5058247;28;20495;-67
2021/10/31 00:15:58;;;;;;;7.10;3.42;;;;;;;;;;5053656;28;20483;-69
2021/10/31 00:18:43;;;;;;;4.38;2.90;;;;;;;;;;5058717;28;20052;-68
2021/10/31 00:21:29;;;;;;;5.68;3.40;;;;;;;;;;5054329;28;20035;-68
2021/10/31 00:24:14;;;;;;;5.88;3.60;;;;;;;;;;5066700;28;20170;-67
2021/10/31 00:26:59;;;;;;;7.32;3.67;;;;;;;;;;5060333;28;20029;-76
2021/10/31 00:29:44;;;;;;;4.43;2.72;;;;;;;;;;5067863;28;20032;-66
2021/10/31 00:32:30;;;;;;;5.25;3.25;;;;;;;;;;5058464;28;20035;-67
2021/10/31 00:35:15;;;;;;;7.20;3.40;;;;;;;;;;5057400;28;20032;-66
2021/10/31 00:38:00;;;;;;;5.05;3.03;;;;;;;;;;5058795;28;20064;-66
2021/10/31 00:40:46;;;;;;;4.07;2.95;;;;;;;;;;5064338;28;20407;-67
2021/10/31 00:43:31;;;;;;;6.82;3.20;;;;;;;;;;5061170;28;20035;-66
2021/10/31 00:46:17;;;;;;;5.10;2.83;;;;;;;;;;5061811;28;20063;-64
2021/10/31 00:49:02;;;;;;;4.60;3.17;;;;;;;;;;5056111;28;20035;-77
2021/10/31 00:51:47;;;;;;;5.15;3.08;;;;;;;;;;5055200;28;20048;-76
2021/10/31 00:54:34;;;;;;;6.18;2.72;;;;;;;;;;5060570;28;20051;-76
2021/10/31 00:57:19;;;;;;;3.70;2.75;;;;;;;;;;5050657;28;20396;-76
2021/10/31 01:00:05;;;;;;;7.05;3.20;;;;;;;;;;5054935;28;20036;-76
2021/10/31 01:02:50;;;;;;;7.03;2.63;;;;;;;;;;5063915;28;20418;-64
2021/10/31 01:05:42;;;;;;;5.18;3.72;;;;;;;;;;5058875;28;20028;-63
2021/10/31 01:08:36;;;;;;;5.70;2.70;;;;;;;;;;5063556;28;20032;-66
2021/10/31 01:11:21;;;;;;;5.43;2.78;;;;;;;;;;5056358;28;20121;-65
2021/10/31 01:14:13;;;;;;;4.50;2.65;;;;;;;;;;5055642;28;20115;-67
2021/10/31 01:17:13;;;;;;;4.30;2.78;;;;;;;;;;5061148;28;20223;-66
2021/10/31 01:20:03;;;;;;;5.88;3.08;;;;;;;;;;5056803;28;20043;-66
2021/10/31 01:23:07;;;;;;;5.03;2.60;;;;;;;;;;5040248;28;20028;-66
2021/10/31 01:25:56;;;;;;;5.75;3.60;;;;;;;;;;5040174;28;20021;-63
2021/10/31 01:29:00;;;;;;;5.43;3.38;;;;;;;;;;5055057;28;20029;-66
2021/10/31 01:32:04;;;;;;;4.32;2.90;;;;;;;;;;5055273;28;20021;-61
2021/10/31 01:34:49;;;;;;;5.57;3.20;;;;;;;;;;5060596;28;20101;-64
2021/10/31 01:37:53;;;;;;;3.45;2.33;;;;;;;;;;5063181;28;20579;-65
2021/10/31 01:40:41;;;;;;;4.90;2.67;;;;;;;;;;5053171;28;20040;-66
2021/10/31 01:43:34;;;;;;;3.85;2.88;;;;;;;;;;5052549;28;20032;-65
2021/10/31 01:46:20;;;;;;;5.85;3.00;;;;;;;;;;5053822;28;20056;-66
2021/10/31 01:49:28;;;;;;;7.55;3.03;;;;;;;;;;5057799;28;20099;-65
2021/10/31 01:52:25;;;;;;;3.03;2.30;;;;;;;;;;5061369;28;20036;-67
2021/10/31 01:55:18;;;;;;;5.13;2.60;;;;;;;;;;5065037;28;20036;-66
2021/10/31 01:58:04;;;;;;;4.38;2.80;;;;;;;;;;5064423;28;20392;-63
2021/10/31 02:00:51;;;;;;;4.97;2.90;;;;;;;;;;5060408;28;20460;-73
2021/10/31 02:03:36;;;;;;;3.33;2.30;;;;;;;;;;5066174;28;20364;-59
2021/10/31 02:06:22;;;;;;;6.00;2.60;;;;;;;;;;5069180;28;20356;-60
2021/10/31 02:09:08;;;;;;;4.10;2.60;;;;;;;;;;5065888;28;20097;-60
2021/10/31 02:11:54;;;;;;;5.13;2.75;;;;;;;;;;5053953;28;20491;-60
2021/10/31 02:14:40;;;;;;;7.75;2.95;;;;;;;;;;5062884;28;20043;-58
2021/10/31 02:17:26;;;;;;;4.35;3.10;;;;;;;;;;5063352;28;20067;-59
2021/10/31 02:20:12;;;;;;;3.95;2.80;;;;;;;;;;5063572;28;20660;-60
2021/10/31 02:22:58;;;;;;;4.30;2.42;;;;;;;;;;5056697;28;20495;-63
2021/10/31 02:25:43;;;;;;;4.68;2.72;;;;;;;;;;5058569;28;20033;-63
2021/10/31 02:28:29;;;;;;;5.50;2.78;;;;;;;;;;5058370;28;20032;-62
2021/10/31 02:31:14;;;;;;;6.25;3.10;;;;;;;;;;5058330;28;20047;-60
2021/10/31 02:33:59;;;;;;;7.18;2.42;;;;;;;;;;5061539;28;20021;-61
2021/10/31 02:36:44;;;;;;;5.93;3.22;;;;;;;;;;5058140;28;20127;-62
2021/10/31 02:39:30;;;;;;;5.25;3.03;;;;;;;;;;5056657;28;20035;-75
2021/10/31 02:42:15;;;;;;;4.68;2.70;;;;;;;;;;5056116;28;20165;-74
2021/10/31 02:45:01;;;;;;;4.05;2.50;;;;;;;;;;5071196;28;20024;-74
2021/10/31 02:47:55;;;;;;;8.32;2.75;;;;;;;;;;5059233;28;20049;-74
2021/10/31 02:50:41;;;;;;;5.22;2.85;;;;;;;;;;5064437;28;20388;-73
2021/10/31 02:53:36;;;;;;;4.65;2.97;;;;;;;;;;5058206;28;20025;-63
2021/10/31 02:56:24;;;;;;;6.00;2.92;;;;;;;;;;5068633;28;20049;-66
2021/10/31 02:59:22;;;;;;;4.22;2.95;;;;;;;;;;5062549;28;20028;-73
2021/10/31 03:02:07;;;;;;;4.95;2.72;;;;;;;;;;5064960;28;20094;-73
2021/10/31 03:04:53;;;;;;;7.68;2.78;;;;;;;;;;5059669;28;20021;-75
2021/10/31 03:07:39;;;;;;;3.75;2.80;;;;;;;;;;5066184;28;20107;-74
2021/10/31 03:10:24;;;;;;;4.25;2.88;;;;;;;;;;5056464;28;20029;-75
2021/10/31 03:13:09;;;;;;;5.38;2.90;;;;;;;;;;5064006;28;20503;-63
2021/10/31 03:15:55;;;;;;;3.92;2.13;;;;;;;;;;5063567;28;20131;-65
2021/10/31 03:18:40;;;;;;;5.95;2.78;;;;;;;;;;5057435;28;20511;-66
2021/10/31 03:21:26;;;;;;;3.47;2.50;;;;;;;;;;5063582;28;20025;-65
2021/10/31 03:24:11;;;;;;;7.10;2.80;;;;;;;;;;5052931;28;20079;-64
2021/10/31 03:26:56;;;;;;;4.97;2.80;;;;;;;;;;5055584;28;20056;-68
2021/10/31 03:29:42;;;;;;;5.47;2.92;;;;;;;;;;5055155;28;20028;-67
2021/10/31 03:32:27;;;;;;;5.93;2.95;;;;;;;;;;5061721;28;20498;-62
2021/10/31 03:35:12;;;;;;;4.18;2.95;;;;;;;;;;5065634;28;20028;-65
2021/10/31 03:37:58;;;;;;;4.40;2.78;;;;;;;;;;5062276;28;20123;-66
2021/10/31 03:40:43;;;;;;;5.40;2.95;;;;;;;;;;5054129;28;20100;-66
2021/10/31 03:43:28;;;;;;;4.80;2.67;;;;;;;;;;5057030;28;20029;-66
2021/10/31 03:46:14;;;;;;;5.28;3.35;;;;;;;;;;5058090;28;20542;-65
2021/10/31 03:48:59;;;;;;;8.57;2.90;;;;;;;;;;5061064;28;20406;-75
2021/10/31 03:51:45;;;;;;;6.95;3.95;;;;;;;;;;5059832;28;20099;-67
2021/10/31 03:54:30;;;;;;;6.40;3.10;;;;;;;;;;5059578;28;20024;-68
2021/10/31 03:57:15;;;;;;;6.88;3.60;;;;;;;;;;5065303;28;20396;-68
2021/10/31 04:00:02;;;;;;;5.22;2.67;;;;;;;;;;5064553;28;20020;-67
2021/10/31 04:02:47;;;;;;;6.53;3.28;;;;;;;;;;5061237;28;20507;-65
2021/10/31 04:05:33;;;;;;;5.75;2.85;;;;;;;;;;5058944;28;20510;-65
2021/10/31 04:08:18;;;;;;;4.82;2.92;;;;;;;;;;5061145;28;20021;-61
2021/10/31 04:11:03;;;;;;;5.85;3.42;;;;;;;;;;5062881;28;20032;-61
2021/10/31 04:13:48;;;;;;;3.50;2.83;;;;;;;;;;5064600;28;20021;-62
2021/10/31 04:16:34;;;;;;;4.90;2.65;;;;;;;;;;5055604;28;20082;-63
2021/10/31 04:19:19;;;;;;;4.63;2.72;;;;;;;;;;5058825;28;20057;-62
2021/10/31 04:22:04;;;;;;;4.70;3.10;;;;;;;;;;5065076;28;20028;-62
2021/10/31 04:24:50;;;;;;;5.70;3.30;;;;;;;;;;5056088;28;20028;-62
2021/10/31 04:27:35;;;;;;;5.78;3.17;;;;;;;;;;5064890;28;20020;-63
2021/10/31 04:30:20;;;;;;;7.22;3.25;;;;;;;;;;5054138;28;20036;-61
2021/10/31 04:33:06;;;;;;;5.43;3.20;;;;;;;;;;5059586;28;20116;-60
2021/10/31 04:35:51;;;;;;;5.15;3.15;;;;;;;;;;5050704;28;20036;-64
2021/10/31 04:38:36;;;;;;;4.53;2.78;;;;;;;;;;5080227;28;20483;-61
2021/10/31 04:41:24;;;;;;;6.63;3.38;;;;;;;;;;5056243;28;20074;-61
2021/10/31 04:44:09;;;;;;;6.85;2.80;;;;;;;;;;5080617;28;20024;-62
2021/10/31 04:46:55;;;;;;;6.10;3.30;;;;;;;;;;5051345;28;20492;-61
2021/10/31 04:49:40;;;;;;;3.63;2.65;;;;;;;;;;5057997;28;20388;-60
2021/10/31 04:52:25;;;;;;;4.00;2.70;;;;;;;;;;5056677;28;20090;-58
2021/10/31 04:55:12;;;;;;;7.18;3.20;;;;;;;;;;5066275;28;20043;-65
2021/10/31 04:57:57;;;;;;;3.28;2.40;;;;;;;;;;5057448;28;20059;-59
2021/10/31 05:00:43;;;;;;;5.05;2.90;;;;;;;;;;5054334;28;20028;-59
2021/10/31 05:03:28;;;;;;;6.43;2.83;;;;;;;;;;5067460;28;20036;-65
2021/10/31 05:06:13;;;;;;;4.07;2.83;;;;;;;;;;5061089;28;20079;-63
2021/10/31 05:08:59;;;;;;;4.45;2.95;;;;;;;;;;5062588;28;20411;-62
2021/10/31 05:11:44;;;;;;;4.88;2.95;;;;;;;;;;5060649;28;20025;-64
2021/10/31 05:14:29;;;;;;;4.95;3.03;;;;;;;;;;5060577;28;20031;-63
2021/10/31 05:17:15;;;;;;;5.93;3.03;;;;;;;;;;5057500;28;20028;-62
2021/10/31 05:20:01;;;;;;;4.43;2.70;;;;;;;;;;5056239;28;20029;-64
2021/10/31 05:22:46;;;;;;;5.28;3.28;;;;;;;;;;5056243;28;20047;-60
2021/10/31 05:25:31;;;;;;;4.70;3.08;;;;;;;;;;5061446;28;20060;-74
2021/10/31 05:28:16;;;;;;;5.45;3.00;;;;;;;;;;5063497;28;20036;-74
2021/10/31 05:31:02;;;;;;;5.75;3.25;;;;;;;;;;5054617;28;20490;-74
2021/10/31 05:33:48;;;;;;;4.85;3.25;;;;;;;;;;5058748;28;20079;-73
2021/10/31 05:36:35;;;;;;;5.15;2.55;;;;;;;;;;5055596;28;20065;-74
2021/10/31 05:39:20;;;;;;;4.30;2.70;;;;;;;;;;5056816;28;20399;-64
2021/10/31 05:42:05;;;;;;;7.18;2.92;;;;;;;;;;5050789;28;20056;-60
2021/10/31 05:44:50;;;;;;;5.50;3.30;;;;;;;;;;5055192;28;20025;-60
2021/10/31 05:47:40;;;;;;;5.95;3.35;;;;;;;;;;5056403;28;20059;-61
2021/10/31 05:50:25;;;;;;;4.30;2.70;;;;;;;;;;5056207;28;20381;-62
2021/10/31 05:53:10;;;;;;;6.82;3.28;;;;;;;;;;5057398;28;20025;-61
2021/10/31 05:55:57;;;;;;;15.95;3.60;;;;;;;;;;5055601;28;20032;-60
2021/10/31 05:58:42;;;;;;;5.47;2.80;;;;;;;;;;5058145;28;20035;-66
2021/10/31 06:01:27;;;;;;;6.30;3.92;;;;;;;;;;5051455;28;20035;-77
2021/10/31 06:04:12;;;;;;;7.53;3.30;;;;;;;;;;5039991;28;20476;-79
2021/10/31 06:06:58;;;;;;;5.70;2.90;;;;;;;;;;5060908;28;20040;-77
2021/10/31 06:09:43;;;;;;;5.30;3.67;;;;;;;;;;5057833;28;20055;-74
2021/10/31 06:12:28;;;;;;;4.72;3.20;;;;;;;;;;5050297;28;20029;-76
2021/10/31 06:15:15;;;;;;;6.72;3.10;;;;;;;;;;5063741;28;20126;-75
2021/10/31 06:18:00;;;;;;;5.50;3.42;;;;;;;;;;5059489;28;20032;-59
2021/10/31 06:20:46;;;;;;;4.55;3.15;;;;;;;;;;5065991;28;20025;-63
2021/10/31 06:23:31;;;;;;;6.72;3.83;;;;;;;;;;5068093;28;20108;-59
2021/10/31 06:26:17;;;;;;;6.93;3.42;;;;;;;;;;5056613;28;20039;-60
2021/10/31 06:29:02;;;;;;;5.60;3.40;;;;;;;;;;5054593;28;20080;-61
2021/10/31 06:31:47;;;;;;;5.85;3.50;;;;;;;;;;5054885;28;20472;-61
2021/10/31 06:34:32;;;;;;;5.25;3.22;;;;;;;;;;5055237;28;20365;-62
2021/10/31 06:37:18;;;;;;;6.85;3.47;;;;;;;;;;5063247;28;20072;-68
2021/10/31 06:40:01;;;;;;;6.85;3.65;;;;;;;;;;5012044;28;20501;-62
2021/10/31 06:42:47;;;;;;;5.72;3.90;;;;;;;;;;5015069;28;20413;-61
2021/10/31 06:45:32;;;;;;;8.65;3.67;;;;;;;;;;5012594;28;20030;-62
2021/10/31 06:48:17;;;;;;;7.97;4.28;;;;;;;;;;5011088;28;20030;-62
2021/10/31 06:51:02;;;;;;;6.68;3.90;;;;;;;;;;5010343;28;20273;-61
2021/10/31 06:53:49;;;;;;;7.10;4.15;;;;;;;;;;5023636;28;20033;-62
2021/10/31 06:56:35;;;;;;;6.93;4.30;;;;;;;;;;5008977;28;20045;-60
2021/10/31 06:59:20;;;;;;;7.45;4.10;;;;;;;;;;5019492;28;20038;-64
2021/10/31 07:02:05;;;;;;;5.55;3.70;;;;;;;;;;5033612;28;20045;-62
2021/10/31 07:04:51;;;;;;;6.40;4.22;;;;;;;;;;5028554;28;20017;-63
2021/10/31 07:07:36;;;;;;;8.35;4.22;;;;;;;;;;5029631;28;20032;-62
2021/10/31 07:10:21;;;;;;;8.63;4.50;;;;;;;;;;5043181;28;20053;-62
2021/10/31 07:13:06;;;;;;;7.65;4.40;;;;;;;;;;5034723;28;20096;-63
2021/10/31 07:15:52;;;;;;;7.78;4.40;;;;;;;;;;5029461;28;20039;-64
2021/10/31 07:18:37;;;;;;;7.70;3.88;;;;;;;;;;5030701;28;20087;-66
2021/10/31 07:21:22;;;;;;;6.15;4.25;;;;;;;;;;5033243;28;20038;-65
2021/10/31 07:24:07;;;;;;;8.10;4.57;;;;;;;;;;5030896;28;20033;-64
2021/10/31 07:26:53;;;;;;;5.93;3.95;;;;;;;;;;5043164;28;20032;-62
2021/10/31 07:29:38;;;;;;;8.77;3.53;;;;;;;;;;5026893;28;20026;-62
2021/10/31 07:32:23;;;;;;;7.78;4.40;;;;;;;;;;5030049;28;20032;-61
2021/10/31 07:35:10;;;;;;;8.73;4.30;;;;;;;;;;5023422;28;20022;-61
2021/10/31 07:37:56;;;;;;;9.40;4.65;;;;;;;;;;5026505;28;20033;-61
2021/10/31 07:40:41;;;;;;;7.35;4.43;;;;;;;;;;5031048;28;20029;-63
2021/10/31 07:43:26;;;;;;;9.40;5.53;;;;;;;;;;5024711;28;20113;-61
2021/10/31 07:46:12;;;;;;;7.75;4.57;;;;;;;;;;5027103;28;20443;-60
2021/10/31 07:48:57;;;;;;;7.72;4.90;;;;;;;;;;5028905;28;20029;-62
2021/10/31 07:51:42;;;;;;;7.47;5.25;;;;;;;;;;5031220;28;20064;-61
2021/10/31 07:54:28;;;;;;;9.18;5.32;;;;;;;;;;5027234;28;20033;-62
2021/10/31 07:57:13;;;;;;;11.68;5.60;;;;;;;;;;5039704;28;20116;-62
2021/10/31 07:59:58;;;;;;;6.88;4.85;;;;;;;;;;5040667;28;20053;-64
2021/10/31 08:02:44;;;;;;;6.95;4.43;;;;;;;;;;5027972;28;20034;-64
2021/10/31 08:05:29;;;;;;;8.00;5.60;;;;;;;;;;5023610;28;20108;-65
2021/10/31 08:08:17;;;;;;;8.38;4.43;;;;;;;;;;5026317;28;20695;-63
2021/10/31 08:11:02;;;;;;;6.93;4.32;;;;;;;;;;5027963;28;20116;-64
2021/10/31 08:13:47;;;;;;;7.70;4.45;;;;;;;;;;5023946;28;20693;-66
2021/10/31 08:16:36;;;;;;;6.30;4.13;;;;;;;;;;5028815;28;20041;-65
2021/10/31 08:19:24;;;;;;;7.30;4.30;;;;;;;;;;5025088;28;20064;-64
2021/10/31 08:22:10;;;;;;;7.40;4.10;;;;;;;;;;5024111;28;20033;-63
2021/10/31 08:24:55;;;;;;;7.55;4.90;;;;;;;;;;5027910;28;20030;-63
2021/10/31 08:27:40;;;;;;;7.10;4.30;;;;;;;;;;5021964;28;20028;-60
2021/10/31 08:30:32;;;;;;;6.78;4.03;;;;;;;;;;5038246;28;20128;-60
2021/10/31 08:33:26;;;;;;;7.97;4.50;;;;;;;;;;5028790;28;20037;-61
2021/10/31 08:36:12;;;;;;;7.47;4.90;;;;;;;;;;5041455;28;20399;-62
2021/10/31 08:38:58;;;;;;;7.50;4.93;;;;;;;;;;5028975;28;20093;-61
2021/10/31 08:41:43;;;;;;;10.00;5.25;;;;;;;;;;5028619;28;20025;-65
2021/10/31 08:44:28;;;;;;;8.30;4.72;;;;;;;;;;5024825;28;20044;-62
2021/10/31 08:47:14;;;;;;;7.88;4.78;;;;;;;;;;5025288;28;20021;-64
2021/10/31 08:49:59;;;;;;;7.65;4.93;;;;;;;;;;5022292;28;20613;-64
2021/10/31 08:52:45;;;;;;;6.60;4.32;;;;;;;;;;5028756;28;20056;-62
2021/10/31 08:55:30;;;;;;;6.95;3.92;;;;;;;;;;5025822;28;20499;-63
2021/10/31 08:58:16;;;;;;;8.75;4.35;;;;;;;;;;5022872;28;20435;-63
2021/10/31 09:01:01;;;;;;;8.43;4.85;;;;;;;;;;5027151;28;20112;-63
2021/10/31 09:03:52;;;;;;;8.35;4.78;;;;;;;;;;5022631;28;20574;-63
2021/10/31 09:06:38;;;;;;;9.02;4.18;;;;;;;;;;5039456;28;20053;-64
2021/10/31 09:09:24;;;;;;;6.43;4.35;;;;;;;;;;5022334;28;20037;-63
2021/10/31 09:12:10;;;;;;;6.00;4.18;;;;;;;;;;5039497;28;20100;-63
2021/10/31 09:14:56;;;;;;;6.20;4.18;;;;;;;;;;5025225;28;20083;-65
2021/10/31 09:17:41;;;;;;;5.13;3.60;;;;;;;;;;5038381;28;20026;-63
2021/10/31 09:20:27;;;;;;;8.00;4.20;;;;;;;;;;5023812;28;20094;-63
2021/10/31 09:23:13;;;;;;;5.22;3.42;;;;;;;;;;5025475;28;20025;-60
2021/10/31 09:25:59;;;;;;;7.35;3.85;;;;;;;;;;5023745;28;20026;-63
2021/10/31 09:28:46;;;;;;;5.20;3.50;;;;;;;;;;5027647;28;20275;-62
2021/10/31 09:31:32;;;;;;;7.70;3.33;;;;;;;;;;5025115;28;20034;-63
2021/10/31 09:34:17;;;;;;;5.07;3.47;;;;;;;;;;5041668;28;20037;-62
2021/10/31 09:37:03;;;;;;;5.53;3.50;;;;;;;;;;5020415;28;20080;-62
2021/10/31 09:39:49;;;;;;;5.90;3.72;;;;;;;;;;5019949;28;20488;-63
2021/10/31 09:42:35;;;;;;;8.45;3.88;;;;;;;;;;5043631;23;20065;-72
2021/10/31 09:45:22;;;;;;;5.50;3.70;;;;;;;;;;5041579;28;20043;-73
2021/10/31 09:48:11;;;;;;;5.78;4.43;;;;;;;;;;5042867;28;20033;-76
2021/10/31 09:50:56;;;;;;;;;;;;;;;;;;5048032;28;20426;-72
2021/10/31 09:53:42;;;;;;;10.35;8.77;;;;;;;;;;5048083;28;19999;-72
2021/10/31 09:56:27;;;;;;;19.88;18.48;;;;;;;;;;5049947;28;20049;-74
2021/10/31 09:59:14;;;;;;;24.90;23.13;;;;;;;;;;5038653;28;20021;-74
2021/10/31 10:04:51;;;;;;;24.50;22.95;;;;;;;;;;5046212;28;20380;-69
2021/10/31 10:07:37;;;;;;;19.27;18.08;;;;;;;;;;5039258;28;20025;-65
2021/10/31 10:10:22;;;;;;;15.45;14.15;;;;;;;;;;5041591;28;20029;-67
2021/10/31 10:13:18;;;;;;;5.82;3.38;;;;;;;;;;5047387;28;20047;-67
2021/10/31 10:16:24;;;;;;;3.97;2.80;;;;;;;;;;5050319;28;20839;-66
2021/10/31 10:19:17;;;;;;;4.82;2.50;;;;;;;;;;5028465;28;20385;-74
2021/10/31 10:22:11;;;;;;;3.40;2.53;;;;;;;;;;5046108;28;20416;-73
2021/10/31 10:24:58;;;;;;;7.57;2.90;;;;;;;;;;5044117;28;20036;-76
2021/10/31 10:27:48;;;;;;;4.65;2.53;;;;;;;;;;5045482;28;20039;-75
2021/10/31 10:30:33;;;;;;;3.42;2.20;;;;;;;;;;5039416;28;20039;-73
2021/10/31 10:33:20;;;;;;;3.03;2.25;;;;;;;;;;5046523;28;20436;-72
2021/10/31 10:36:13;;;;;;;2.42;2.15;;;;;;;;;;5045616;28;20044;-65
2021/10/31 10:39:06;;;;;;;2.90;2.08;;;;;;;;;;5039090;28;20515;-64
2021/10/31 10:41:52;;;;;;;4.40;2.55;;;;;;;;;;5040314;28;20051;-66
2021/10/31 10:44:39;;;;;;;4.25;2.60;;;;;;;;;;5039516;28;20056;-66
2021/10/31 10:47:24;;;;;;;5.00;2.60;;;;;;;;;;5040289;28;20403;-64
2021/10/31 10:50:17;;;;;;;3.90;2.53;;;;;;;;;;5038370;28;20460;-63
2021/10/31 10:53:03;;;;;;;4.22;2.08;;;;;;;;;;5040579;28;20033;-62
2021/10/31 10:55:49;;;;;;;2.97;1.95;;;;;;;;;;5040936;28;20120;-74
2021/10/31 10:58:35;;;;;;;7.22;2.30;;;;;;;;;;5040159;28;20621;-72
2021/10/31 11:01:20;;;;;;;4.80;2.40;;;;;;;;;;5042069;28;20075;-69
2021/10/31 11:04:24;;;;;;;3.70;2.40;;;;;;;;;;5043369;28;20060;-71
2021/10/31 11:07:10;;;;;;;2.22;2.00;;;;;;;;;;5044213;28;20028;-71
2021/10/31 11:09:55;;;;;;;5.80;2.30;;;;;;;;;;5042700;28;20058;-69
2021/10/31 11:12:41;;;;;;;5.10;3.05;;;;;;;;;;5044539;28;20042;-62
2021/10/31 11:15:28;;;;;;;4.47;2.50;;;;;;;;;;5044932;28;20034;-70
2021/10/31 11:18:13;;;;;;;3.35;2.13;;;;;;;;;;5043989;28;20071;-68
2021/10/31 11:20:59;;;;;;;2.90;2.15;;;;;;;;;;5038876;28;20120;-70
2021/10/31 11:23:46;;;;;;;4.53;2.47;;;;;;;;;;5041909;28;20029;-70
2021/10/31 11:26:35;;;;;;;4.38;2.25;;;;;;;;;;5044802;28;20128;-70
2021/10/31 11:29:20;;;;;;;2.58;2.10;;;;;;;;;;5044455;28;20033;-71
2021/10/31 11:32:06;;;;;;;5.15;2.40;;;;;;;;;;5053789;28;20041;-64
2021/10/31 11:34:52;;;;;;;4.43;2.30;;;;;;;;;;5038300;28;20044;-66
2021/10/31 11:37:43;;;;;;;2.60;2.03;;;;;;;;;;5053963;28;20171;-62
2021/10/31 11:40:36;;;;;;;5.57;2.28;;;;;;;;;;5051625;28;20561;-65
2021/10/31 11:43:23;;;;;;;3.78;2.75;;;;;;;;;;5037419;28;20467;-64
2021/10/31 11:46:08;;;;;;;2.88;2.10;;;;;;;;;;5038866;28;20496;-67
2021/10/31 11:49:00;;;;;;;3.65;2.17;;;;;;;;;;5045198;28;20047;-63
2021/10/31 11:51:48;;;;;;;6.30;2.55;;;;;;;;;;5037926;28;20112;-61
2021/10/31 11:54:33;;;;;;;3.15;2.13;;;;;;;;;;5041448;28;20036;-63
2021/10/31 11:57:25;;;;;;;3.92;2.03;;;;;;;;;;5053765;28;20436;-65
2021/10/31 12:00:11;;;;;;;2.80;2.17;;;;;;;;;;5038824;28;20028;-62
2021/10/31 12:03:03;;;;;;;3.50;2.17;;;;;;;;;;5041221;28;20033;-61
2021/10/31 12:05:48;;;;;;;4.30;2.20;;;;;;;;;;5055082;28;20033;-68
2021/10/31 12:08:47;;;;;;;4.05;2.13;;;;;;;;;;5041610;28;20040;-71
2021/10/31 12:11:32;;;;;;;3.00;2.03;;;;;;;;;;5040670;28;20032;-70
2021/10/31 12:14:37;;;;;;;3.20;2.00;;;;;;;;;;5039697;28;20047;-72
2021/10/31 12:17:23;;;;;;;5.68;2.38;;;;;;;;;;5042092;28;20105;-70
2021/10/31 12:20:09;;;;;;;3.17;1.73;;;;;;;;;;5042817;28;20635;-71
2021/10/31 12:23:14;;;;;;;3.67;2.13;;;;;;;;;;5043018;28;20039;-70
2021/10/31 12:26:16;;;;;;;3.38;2.40;;;;;;;;;;5042722;28;20464;-60
2021/10/31 12:29:08;;;;;;;4.78;2.03;;;;;;;;;;5039963;28;20531;-70
2021/10/31 12:31:53;;;;;;;4.85;1.92;;;;;;;;;;5043618;28;20021;-69
2021/10/31 12:34:39;;;;;;;2.65;1.92;;;;;;;;;;5044456;28;20072;-71
2021/10/31 12:37:27;;;;;;;3.10;2.08;;;;;;;;;;5052263;28;20535;-69
2021/10/31 12:40:12;;;;;;;3.08;2.00;;;;;;;;;;5049486;28;20032;-70
2021/10/31 12:43:00;;;;;;;2.55;1.90;;;;;;;;;;5047191;28;20088;-73
2021/10/31 12:45:46;;;;;;;2.88;2.05;;;;;;;;;;5042659;28;20365;-72
2021/10/31 12:48:35;;;;;;;3.63;1.83;;;;;;;;;;5045905;28;20252;-70
2021/10/31 12:52:01;;;;;;;6.38;2.08;;;;;;;;;;5039220;28;20068;-70
2021/10/31 12:54:53;;;;;;;4.07;1.92;;;;;;;;;;5039518;28;20036;-70
2021/10/31 12:57:39;;;;;;;3.05;1.90;;;;;;;;;;5043379;28;20033;-70
2021/10/31 13:00:25;;;;;;;2.78;1.90;;;;;;;;;;5045421;28;20029;-70
2021/10/31 13:03:11;;;;;;;5.43;2.50;;;;;;;;;;5046970;28;20485;-62
2021/10/31 13:05:57;;;;;;;3.03;2.00;;;;;;;;;;5047125;28;20025;-72
2021/10/31 13:08:52;;;;;;;3.03;1.92;;;;;;;;;;5048847;28;20032;-70
2021/10/31 13:11:37;;;;;;;3.83;2.15;;;;;;;;;;5046203;28;20114;-74
2021/10/31 13:14:27;;;;;;;5.07;2.17;;;;;;;;;;5041575;28;20028;-70
2021/10/31 13:17:13;;;;;;;4.57;2.17;;;;;;;;;;5055971;28;20116;-73
2021/10/31 13:20:06;;;;;;;3.10;2.13;;;;;;;;;;5045978;28;20031;-64
2021/10/31 13:22:58;;;;;;;7.63;2.47;;;;;;;;;;5049168;28;20023;-62
2021/10/31 13:25:54;;;;;;;2.88;1.88;;;;;;;;;;5049383;28;20547;-64
2021/10/31 13:28:43;;;;;;;3.05;2.05;;;;;;;;;;5048777;28;20033;-62
2021/10/31 13:31:30;;;;;;;5.20;2.10;;;;;;;;;;5050114;28;20061;-63
2021/10/31 13:34:15;;;;;;;5.20;1.70;;;;;;;;;;5045891;28;20036;-62
2021/10/31 13:37:05;;;;;;;4.78;2.00;;;;;;;;;;5047727;28;20400;-61
2021/10/31 13:39:55;;;;;;;4.32;2.10;;;;;;;;;;5046841;28;20525;-69
2021/10/31 13:42:42;;;;;;;3.85;2.50;;;;;;;;;;5050371;28;20075;-63
2021/10/31 13:45:27;;;;;;;3.60;2.30;;;;;;;;;;5043350;28;20036;-63
2021/10/31 13:48:18;;;;;;;5.78;2.40;;;;;;;;;;5050797;28;20477;-64
2021/10/31 13:51:03;;;;;;;5.55;2.13;;;;;;;;;;5039054;28;20033;-64
2021/10/31 13:53:49;;;;;;;6.25;2.00;;;;;;;;;;5052243;28;20049;-64
2021/10/31 13:56:38;;;;;;;5.13;2.63;;;;;;;;;;5023593;28;20110;-64
2021/10/31 13:59:24;;;;;;;7.70;2.65;;;;;;;;;;5044911;28;20531;-72
2021/10/31 14:02:16;;;;;;;5.55;2.58;;;;;;;;;;5038747;28;20037;-71
2021/10/31 14:05:03;;;;;;;4.07;2.40;;;;;;;;;;5042837;28;20106;-70
2021/10/31 14:07:50;;;;;;;6.40;2.33;;;;;;;;;;5038060;28;20032;-70
2021/10/31 14:10:37;;;;;;;6.35;2.65;;;;;;;;;;5038238;28;20036;-73
2021/10/31 14:13:22;;;;;;;4.97;3.08;;;;;;;;;;5035769;28;20033;-70
2021/10/31 14:16:21;;;;;;;4.28;2.75;;;;;;;;;;5039578;28;20044;-74
2021/10/31 14:19:16;;;;;;;4.87;2.30;;;;;;;;;;5038501;28;20034;-63
2021/10/31 14:22:03;;;;;;;4.53;3.13;;;;;;;;;;5039133;28;20038;-66
2021/10/31 14:25:06;;;;;;;7.28;2.53;;;;;;;;;;5038770;28;20618;-64
2021/10/31 14:28:05;;;;;;;5.43;2.13;;;;;;;;;;5039876;28;20040;-63
2021/10/31 14:30:53;;;;;;;4.72;2.58;;;;;;;;;;5043130;28;20033;-63
2021/10/31 14:33:41;;;;;;;4.40;2.90;;;;;;;;;;5037395;28;20116;-67
2021/10/31 14:36:29;;;;;;;4.25;2.63;;;;;;;;;;5039537;28;20055;-66
2021/10/31 14:39:15;;;;;;;4.25;2.80;;;;;;;;;;5039506;28;20113;-63
2021/10/31 14:42:00;;;;;;;5.65;2.67;;;;;;;;;;5038868;28;20055;-63
2021/10/31 14:44:45;;;;;;;3.22;2.10;;;;;;;;;;5034923;28;20026;-63
2021/10/31 14:47:41;;;;;;;6.78;2.45;;;;;;;;;;5039060;28;20032;-63
2021/10/31 14:50:36;;;;;;;4.95;2.40;;;;;;;;;;5037436;28;20408;-66
2021/10/31 14:53:22;;;;;;;5.93;2.90;;;;;;;;;;5039434;28;20108;-68
2021/10/31 14:56:07;;;;;;;5.15;3.20;;;;;;;;;;5040940;28;20113;-63
2021/10/31 14:58:52;;;;;;;12.32;3.22;;;;;;;;;;5040306;28;20499;-67
2021/10/31 15:01:44;;;;;;;8.18;3.40;;;;;;;;;;5040451;28;20483;-64
2021/10/31 15:04:29;;;;;;;8.70;3.80;;;;;;;;;;5045751;28;20025;-63
2021/10/31 15:07:15;;;;;;;6.15;3.60;;;;;;;;;;5055393;28;20029;-66
2021/10/31 15:10:01;;;;;;;9.43;4.80;;;;;;;;;;5039191;28;20036;-74
2021/10/31 15:12:46;;;;;;;7.30;4.20;;;;;;;;;;5038545;28;20021;-61
2021/10/31 15:15:31;;;;;;;6.05;3.42;;;;;;;;;;5040810;28;20229;-62
2021/10/31 15:18:17;;;;;;;7.53;3.40;;;;;;;;;;5040988;28;20048;-62
2021/10/31 15:21:03;;;;;;;5.65;3.42;;;;;;;;;;5040231;28;20082;-60
2021/10/31 15:23:48;;;;;;;10.38;3.67;;;;;;;;;;5041970;28;20110;-62
2021/10/31 15:26:35;;;;;;;6.93;3.15;;;;;;;;;;5042791;28;20022;-62
2021/10/31 15:29:21;;;;;;;8.73;3.28;;;;;;;;;;5045872;28;20901;-73
2021/10/31 15:32:06;;;;;;;6.97;3.10;;;;;;;;;;5039835;28;20029;-73
2021/10/31 15:34:52;;;;;;;6.50;3.58;;;;;;;;;;5038320;28;20037;-75
2021/10/31 15:37:37;;;;;;;10.32;3.67;;;;;;;;;;5040709;28;20060;-70
2021/10/31 15:40:23;;;;;;;8.25;3.95;;;;;;;;;;5039955;28;20562;-68
2021/10/31 15:43:09;;;;;;;6.45;2.92;;;;;;;;;;5040360;28;20056;-69
2021/10/31 15:45:54;;;;;;;7.05;3.40;;;;;;;;;;5041891;28;20074;-69
2021/10/31 15:48:41;;;;;;;7.78;3.28;;;;;;;;;;5040775;28;20091;-68
2021/10/31 15:51:27;;;;;;;5.90;3.35;;;;;;;;;;5026553;28;20045;-70
2021/10/31 15:54:12;;;;;;;9.55;3.65;;;;;;;;;;5040874;28;20029;-72
2021/10/31 15:56:57;;;;;;;10.75;4.47;;;;;;;;;;5039020;28;20060;-72
2021/10/31 15:59:43;;;;;;;11.20;3.67;;;;;;;;;;5041623;28;20033;-73
2021/10/31 16:02:34;;;;;;;10.75;4.10;;;;;;;;;;5039574;28;20449;-73
2021/10/31 16:05:19;;;;;;;6.13;3.63;;;;;;;;;;5053470;28;20037;-75
2021/10/31 16:08:05;;;;;;;8.90;3.75;;;;;;;;;;5039673;28;20028;-66
2021/10/31 16:10:51;;;;;;;5.82;3.22;;;;;;;;;;5038223;28;20031;-66
2021/10/31 16:13:36;;;;;;;6.90;3.80;;;;;;;;;;5039575;28;20115;-68
2021/10/31 16:16:21;;;;;;;8.98;4.25;;;;;;;;;;5040436;28;20040;-63
2021/10/31 16:19:07;;;;;;;11.55;3.95;;;;;;;;;;5032510;28;20079;-62
2021/10/31 16:21:52;;;;;;;10.05;3.90;;;;;;;;;;5039212;28;20033;-62
2021/10/31 16:24:37;;;;;;;9.07;4.20;;;;;;;;;;5039511;28;20053;-66
2021/10/31 16:27:23;;;;;;;6.35;3.63;;;;;;;;;;5040157;28;20084;-64
2021/10/31 16:30:09;;;;;;;10.02;4.47;;;;;;;;;;5039881;28;20032;-64
2021/10/31 16:32:55;;;;;;;10.38;4.60;;;;;;;;;;5038043;28;20029;-63
2021/10/31 16:35:41;;;;;;;8.38;4.55;;;;;;;;;;5039192;28;20438;-61
2021/10/31 16:38:27;;;;;;;10.55;4.57;;;;;;;;;;5039864;28;20051;-64
2021/10/31 16:41:13;;;;;;;8.77;4.82;;;;;;;;;;5038721;28;20024;-67
2021/10/31 16:43:59;;;;;;;11.45;5.45;;;;;;;;;;5039310;28;20064;-70
2021/10/31 16:46:44;;;;;;;11.13;4.93;;;;;;;;;;5039075;28;20118;-71